createdAt,value
2023-02-22T00:00:46.225Z,9.358492
2023-02-22T00:01:46.219Z,9.358525
2023-02-22T00:02:46.224Z,9.358441
2023-02-22T00:03:46.226Z,9.358413
2023-02-22T00:04:46.150Z,9.358461
2023-02-22T00:05:46.170Z,9.358489
2023-02-22T00:06:46.182Z,9.358503
2023-02-22T00:07:46.139Z,9.358577
2023-02-22T00:08:46.112Z,9.358657
2023-02-22T00:09:46.149Z,9.358624
2023-02-22T00:10:46.107Z,9.358660
2023-02-22T00:11:46.093Z,9.358631
2023-02-22T00:12:46.118Z,9.358591
2023-02-22T00:13:46.079Z,9.358587
2023-02-22T00:14:46.054Z,9.358557
2023-02-22T00:15:46.083Z,9.358540
2023-02-22T00:16:46.068Z,9.358537
2023-02-22T00:17:46.017Z,9.358562
2023-02-22T00:18:46.065Z,9.358606
2023-02-22T00:19:46.035Z,9.358566
2023-02-22T00:20:45.986Z,9.358577
2023-02-22T00:21:46.028Z,9.358582
2023-02-22T00:22:45.996Z,9.358600
2023-02-22T00:23:45.969Z,9.358531
2023-02-22T00:24:45.965Z,9.358545
2023-02-22T00:25:45.969Z,9.358522
2023-02-22T00:26:45.920Z,9.358499
2023-02-22T00:27:45.942Z,9.358506
2023-02-22T00:28:45.931Z,9.358499
2023-02-22T00:29:45.931Z,9.358549
2023-02-22T00:30:45.884Z,9.358549
2023-02-22T00:31:45.981Z,9.358552
2023-02-22T00:32:45.943Z,9.358554
2023-02-22T00:33:45.919Z,9.358578
2023-02-22T00:34:45.848Z,9.358473
2023-02-22T00:35:45.884Z,9.358519
2023-02-22T00:36:45.876Z,9.358572
2023-02-22T00:37:45.824Z,9.358557
2023-02-22T00:38:45.792Z,9.358534
2023-02-22T00:39:45.813Z,9.358601
2023-02-22T00:40:45.814Z,9.358650
2023-02-22T00:41:45.785Z,9.358590
2023-02-22T00:42:45.798Z,9.358671
2023-02-22T00:43:45.770Z,9.358620
2023-02-22T00:44:46.742Z,9.358639
2023-02-22T00:45:45.750Z,9.358598
2023-02-22T00:46:45.745Z,9.358615
2023-02-22T00:47:45.724Z,9.358666
2023-02-22T00:48:45.715Z,9.358658
2023-02-22T00:49:45.720Z,9.358587
2023-02-22T00:50:45.697Z,9.358546
2023-02-22T00:51:45.684Z,9.358541
2023-02-22T00:52:45.677Z,9.358560
2023-02-22T00:53:45.660Z,9.358547
2023-02-22T00:54:45.642Z,9.358535
2023-02-22T00:55:45.622Z,9.358487
2023-02-22T00:56:45.628Z,9.358587
2023-02-22T00:57:45.627Z,9.358645
2023-02-22T00:58:45.614Z,9.358565
2023-02-22T00:59:45.593Z,9.358706
2023-02-22T01:00:45.574Z,9.358655
2023-02-22T01:01:45.555Z,9.358646
2023-02-22T01:02:45.572Z,9.358670
2023-02-22T01:03:45.548Z,9.358615
2023-02-22T01:04:45.518Z,9.358513
2023-02-22T01:05:45.534Z,9.358522
2023-02-22T01:06:45.552Z,9.358560
2023-02-22T01:07:45.499Z,9.358597
2023-02-22T01:08:45.469Z,9.358605
2023-02-22T01:09:45.482Z,9.358652
2023-02-22T01:10:45.494Z,9.358612
2023-02-22T01:11:45.467Z,9.358505
2023-02-22T01:12:45.434Z,9.358466
2023-02-22T01:13:45.451Z,9.358548
2023-02-22T01:14:45.425Z,9.358565
2023-02-22T01:15:45.419Z,9.358598
2023-02-22T01:16:45.457Z,9.358500
2023-02-22T01:17:45.409Z,9.358505
2023-02-22T01:18:45.378Z,9.358551
2023-02-22T01:19:45.360Z,9.358603
2023-02-22T01:20:45.398Z,9.358518
2023-02-22T01:21:45.318Z,9.358592
2023-02-22T01:22:46.364Z,9.358582
2023-02-22T01:23:45.373Z,9.358651
2023-02-22T01:24:45.290Z,9.358670
2023-02-22T01:25:45.301Z,9.358587
2023-02-22T01:26:45.335Z,9.358568
2023-02-22T01:27:45.303Z,9.358511
2023-02-22T01:28:45.255Z,9.358484
2023-02-22T01:29:45.281Z,9.358496
2023-02-22T01:30:45.361Z,9.358503
2023-02-22T01:31:45.289Z,9.358509
2023-02-22T01:32:45.255Z,9.358501
2023-02-22T01:33:45.238Z,9.358503
2023-02-22T01:34:45.186Z,9.358512
2023-02-22T01:35:45.186Z,9.358577
2023-02-22T01:36:45.227Z,9.358575
2023-02-22T01:37:45.175Z,9.358544
2023-02-22T01:38:45.156Z,9.358512
2023-02-22T01:39:45.172Z,9.358536
2023-02-22T01:40:45.153Z,9.358470
2023-02-22T01:41:45.155Z,9.358389
2023-02-22T01:42:45.118Z,9.358466
2023-02-22T01:43:46.108Z,9.358486
2023-02-22T01:44:45.125Z,9.358589
2023-02-22T01:45:45.145Z,9.358582
2023-02-22T01:46:45.093Z,9.358473
2023-02-22T01:47:45.083Z,9.358466
2023-02-22T01:48:45.102Z,9.358394
2023-02-22T01:49:45.047Z,9.358472
2023-02-22T01:50:45.043Z,9.358533
2023-02-22T01:51:45.088Z,9.358611
2023-02-22T01:52:44.994Z,9.358617
2023-02-22T01:53:45.011Z,9.358584
2023-02-22T01:54:44.985Z,9.358591
2023-02-22T01:55:44.978Z,9.358561
2023-02-22T01:56:44.981Z,9.358532
2023-02-22T01:57:44.990Z,9.358598
2023-02-22T01:58:44.945Z,9.358609
2023-02-22T01:59:44.938Z,9.358515
2023-02-22T02:00:44.954Z,9.358508
2023-02-22T02:01:44.899Z,9.358552
2023-02-22T02:02:44.929Z,9.358610
2023-02-22T02:03:44.935Z,9.358654
2023-02-22T02:04:44.879Z,9.358538
2023-02-22T02:05:44.851Z,9.358460
2023-02-22T02:06:44.899Z,9.358455
2023-02-22T02:07:44.862Z,9.358473
2023-02-22T02:08:44.825Z,9.358511
2023-02-22T02:09:44.862Z,9.358572
2023-02-22T02:10:44.829Z,9.358564
2023-02-22T02:11:44.814Z,9.358534
2023-02-22T02:12:44.799Z,9.358487
2023-02-22T02:13:44.787Z,9.358521
2023-02-22T02:14:44.784Z,9.358511
2023-02-22T02:15:44.782Z,9.358552
2023-02-22T02:17:17.373Z,9.358557
2023-02-22T02:17:44.839Z,9.358536
2023-02-22T02:18:44.760Z,9.358590
2023-02-22T02:19:44.729Z,9.358665
2023-02-22T02:20:44.920Z,9.358579
2023-02-22T02:21:44.697Z,9.358505
2023-02-22T02:22:44.701Z,9.358522
2023-02-22T02:23:44.704Z,9.358534
2023-02-22T02:24:44.658Z,9.358560
2023-02-22T02:25:44.696Z,9.358546
2023-02-22T02:26:44.657Z,9.358535
2023-02-22T02:27:44.733Z,9.358534
2023-02-22T02:28:44.655Z,9.358564
2023-02-22T02:29:44.633Z,9.358599
2023-02-22T02:30:44.697Z,9.358551
2023-02-22T02:31:44.702Z,9.358511
2023-02-22T02:32:44.682Z,9.358492
2023-02-22T02:33:44.582Z,9.358448
2023-02-22T02:34:44.567Z,9.358451
2023-02-22T02:35:44.556Z,9.358418
2023-02-22T02:36:44.527Z,9.358428
2023-02-22T02:37:44.537Z,9.358437
2023-02-22T02:38:44.617Z,9.358425
2023-02-22T02:39:44.523Z,9.358503
2023-02-22T02:40:44.532Z,9.358461
2023-02-22T02:41:44.503Z,9.358445
2023-02-22T02:42:44.470Z,9.358554
2023-02-22T02:43:44.464Z,9.358534
2023-02-22T02:44:44.447Z,9.358463
2023-02-22T02:45:45.441Z,9.358434
2023-02-22T02:46:44.437Z,9.358442
2023-02-22T02:47:44.420Z,9.358473
2023-02-22T02:48:44.413Z,9.358513
2023-02-22T02:49:44.392Z,9.358483
2023-02-22T02:50:44.379Z,9.358464
2023-02-22T02:51:44.399Z,9.358483
2023-02-22T02:52:44.357Z,9.358480
2023-02-22T02:53:44.340Z,9.358516
2023-02-22T02:54:44.354Z,9.358461
2023-02-22T02:55:44.334Z,9.358491
2023-02-22T02:56:45.340Z,9.358499
2023-02-22T02:57:44.318Z,9.358582
2023-02-22T02:58:44.296Z,9.358563
2023-02-22T02:59:44.281Z,9.358562
2023-02-22T03:00:44.281Z,9.358534
2023-02-22T03:01:44.313Z,9.358516
2023-02-22T03:02:44.285Z,9.358505
2023-02-22T03:03:44.243Z,9.358549
2023-02-22T03:04:44.226Z,9.358505
2023-02-22T03:05:44.245Z,9.358519
2023-02-22T03:06:44.225Z,9.358568
2023-02-22T03:07:44.266Z,9.358561
2023-02-22T03:08:44.206Z,9.358528
2023-02-22T03:09:44.187Z,9.358521
2023-02-22T03:10:44.184Z,9.358575
2023-02-22T03:11:44.173Z,9.358594
2023-02-22T03:12:44.165Z,9.358500
2023-02-22T03:13:44.139Z,9.358493
2023-02-22T03:14:44.127Z,9.358471
2023-02-22T03:15:44.123Z,9.358466
2023-02-22T03:16:44.163Z,9.358479
2023-02-22T03:17:44.110Z,9.358501
2023-02-22T03:18:44.084Z,9.358514
2023-02-22T03:19:44.083Z,9.358490
2023-02-22T03:20:44.085Z,9.358519
2023-02-22T03:21:44.059Z,9.358609
2023-02-22T03:22:44.089Z,9.358586
2023-02-22T03:23:44.114Z,9.358536
2023-02-22T03:24:44.037Z,9.358522
2023-02-22T03:25:44.091Z,9.358529
2023-02-22T03:26:44.033Z,9.358568
2023-02-22T03:27:43.978Z,9.358556
2023-02-22T03:28:43.983Z,9.358520
2023-02-22T03:29:43.995Z,9.358514
2023-02-22T03:30:43.986Z,9.358591
2023-02-22T03:31:44.963Z,9.358632
2023-02-22T03:32:43.938Z,9.358604
2023-02-22T03:33:43.917Z,9.358562
2023-02-22T03:34:43.951Z,9.358547
2023-02-22T03:35:43.906Z,9.358527
2023-02-22T03:36:43.916Z,9.358485
2023-02-22T03:37:43.892Z,9.358517
2023-02-22T03:38:43.871Z,9.358503
2023-02-22T03:39:43.882Z,9.358487
2023-02-22T03:40:43.859Z,9.358515
2023-02-22T03:41:43.842Z,9.358539
2023-02-22T03:42:43.839Z,9.358599
2023-02-22T03:43:43.814Z,9.358563
2023-02-22T03:44:43.812Z,9.358541
2023-02-22T03:45:43.810Z,9.358487
2023-02-22T03:46:43.785Z,9.358520
2023-02-22T03:47:43.779Z,9.358500
2023-02-22T03:48:43.776Z,9.358523
2023-02-22T03:49:43.748Z,9.358540
2023-02-22T03:50:43.818Z,9.358486
2023-02-22T03:51:43.754Z,9.358458
2023-02-22T03:52:43.839Z,9.358519
2023-02-22T03:53:43.777Z,9.358539
2023-02-22T03:54:43.708Z,9.358598
2023-02-22T03:55:43.787Z,9.358525
2023-02-22T03:56:43.672Z,9.358508
2023-02-22T03:57:43.818Z,9.358500
2023-02-22T03:58:43.651Z,9.358521
2023-02-22T03:59:43.668Z,9.358522
2023-02-22T04:00:43.647Z,9.358553
2023-02-22T04:01:43.665Z,9.358561
2023-02-22T04:02:43.621Z,9.358550
2023-02-22T04:03:43.600Z,9.358615
2023-02-22T04:04:43.610Z,9.358587
2023-02-22T04:05:43.683Z,9.358521
2023-02-22T04:06:43.634Z,9.358501
2023-02-22T04:07:43.551Z,9.358517
2023-02-22T04:08:43.555Z,9.358529
2023-02-22T04:09:43.542Z,9.358516
2023-02-22T04:10:43.696Z,9.358526
2023-02-22T04:11:43.533Z,9.358516
2023-02-22T04:12:43.520Z,9.358525
2023-02-22T04:13:44.506Z,9.358482
2023-02-22T04:14:43.532Z,9.358517
2023-02-22T04:15:43.497Z,9.358487
2023-02-22T04:16:43.537Z,9.358512
2023-02-22T04:17:43.440Z,9.358531
2023-02-22T04:18:44.520Z,9.358564
2023-02-22T04:19:43.449Z,9.358596
2023-02-22T04:20:43.409Z,9.358561
2023-02-22T04:21:43.405Z,9.358590
2023-02-22T04:22:43.421Z,9.358536
2023-02-22T04:23:43.388Z,9.358567
2023-02-22T04:24:43.387Z,9.358594
2023-02-22T04:25:43.392Z,9.358598
2023-02-22T04:26:43.348Z,9.358624
2023-02-22T04:27:43.345Z,9.358648
2023-02-22T04:28:43.350Z,9.358597
2023-02-22T04:29:43.326Z,9.358643
2023-02-22T04:30:43.306Z,9.358625
2023-02-22T04:31:43.369Z,9.358639
2023-02-22T04:32:43.291Z,9.358639
2023-02-22T04:33:43.312Z,9.358621
2023-02-22T04:34:43.309Z,9.358587
2023-02-22T04:35:43.260Z,9.358576
2023-02-22T04:36:43.236Z,9.358533
2023-02-22T04:37:43.245Z,9.358575
2023-02-22T04:38:43.224Z,9.358574
2023-02-22T04:39:43.229Z,9.358574
2023-02-22T04:40:44.212Z,9.358600
2023-02-22T04:41:43.297Z,9.358627
2023-02-22T04:42:43.170Z,9.358685
2023-02-22T04:43:43.173Z,9.358641
2023-02-22T04:44:43.178Z,9.358640
2023-02-22T04:45:43.174Z,9.358598
2023-02-22T04:46:43.201Z,9.358564
2023-02-22T04:47:43.141Z,9.358624
2023-02-22T04:48:43.142Z,9.358643
2023-02-22T04:49:43.126Z,9.358570
2023-02-22T04:50:43.108Z,9.358541
2023-02-22T04:51:43.098Z,9.358577
2023-02-22T04:52:43.068Z,9.358585
2023-02-22T04:53:43.082Z,9.358590
2023-02-22T04:54:43.068Z,9.358574
2023-02-22T04:55:43.036Z,9.358610
2023-02-22T04:56:43.061Z,9.358630
2023-02-22T04:57:43.023Z,9.358545
2023-02-22T04:58:42.999Z,9.358550
2023-02-22T04:59:43.014Z,9.358564
2023-02-22T05:00:43.002Z,9.358562
2023-02-22T05:01:42.986Z,9.358550
2023-02-22T05:02:43.030Z,9.358586
2023-02-22T05:03:42.954Z,9.358558
2023-02-22T05:04:42.971Z,9.358574
2023-02-22T05:05:42.963Z,9.358583
2023-02-22T05:06:42.941Z,9.358608
2023-02-22T05:07:42.932Z,9.358578
2023-02-22T05:08:42.906Z,9.358571
2023-02-22T05:09:42.904Z,9.358597
2023-02-22T05:10:42.896Z,9.358622
2023-02-22T05:11:42.917Z,9.358608
2023-02-22T05:12:42.901Z,9.358619
2023-02-22T05:13:42.873Z,9.358546
2023-02-22T05:14:42.848Z,9.358558
2023-02-22T05:15:42.932Z,9.358597
2023-02-22T05:16:42.823Z,9.358584
2023-02-22T05:17:42.809Z,9.358574
2023-02-22T05:18:42.806Z,9.358596
2023-02-22T05:19:42.793Z,9.358564
2023-02-22T05:20:42.799Z,9.358576
2023-02-22T05:21:42.765Z,9.358579
2023-02-22T05:22:42.758Z,9.358562
2023-02-22T05:23:42.762Z,9.358558
2023-02-22T05:24:42.751Z,9.358550
2023-02-22T05:25:42.725Z,9.358513
2023-02-22T05:26:42.723Z,9.358511
2023-02-22T05:27:42.713Z,9.358502
2023-02-22T05:28:42.710Z,9.358532
2023-02-22T05:29:42.691Z,9.358530
2023-02-22T05:30:42.722Z,9.358560
2023-02-22T05:31:42.833Z,9.358537
2023-02-22T05:32:42.677Z,9.358491
2023-02-22T05:33:42.649Z,9.358524
2023-02-22T05:34:42.644Z,9.358548
2023-02-22T05:35:42.645Z,9.358563
2023-02-22T05:36:42.647Z,9.358539
2023-02-22T05:37:42.623Z,9.358533
2023-02-22T05:38:42.620Z,9.358493
2023-02-22T05:39:42.610Z,9.358463
2023-02-22T05:40:42.588Z,9.358542
2023-02-22T05:41:43.590Z,9.358550
2023-02-22T05:42:42.561Z,9.358573
2023-02-22T05:43:42.577Z,9.358511
2023-02-22T05:44:42.563Z,9.358495
2023-02-22T05:45:42.533Z,9.358468
2023-02-22T05:46:42.549Z,9.358513
2023-02-22T05:47:42.536Z,9.358560
2023-02-22T05:48:42.495Z,9.358572
2023-02-22T05:49:42.533Z,9.358459
2023-02-22T05:50:42.495Z,9.358470
2023-02-22T05:51:42.495Z,9.358511
2023-02-22T05:52:42.486Z,9.358438
2023-02-22T05:53:42.482Z,9.358468
2023-02-22T05:54:42.452Z,9.358562
2023-02-22T05:55:42.446Z,9.358544
2023-02-22T05:56:42.421Z,9.358575
2023-02-22T05:57:42.414Z,9.358562
2023-02-22T05:58:42.423Z,9.358549
2023-02-22T05:59:42.397Z,9.358615
2023-02-22T06:00:42.382Z,9.358557
2023-02-22T06:01:42.406Z,9.358502
2023-02-22T06:02:42.346Z,9.358527
2023-02-22T06:03:42.345Z,9.358551
2023-02-22T06:04:42.372Z,9.358518
2023-02-22T06:05:42.401Z,9.358537
2023-02-22T06:06:42.320Z,9.358526
2023-02-22T06:07:42.333Z,9.358584
2023-02-22T06:08:42.307Z,9.358541
2023-02-22T06:09:42.314Z,9.358574
2023-02-22T06:10:42.307Z,9.358528
2023-02-22T06:11:42.276Z,9.358559
2023-02-22T06:12:42.256Z,9.358574
2023-02-22T06:13:42.281Z,9.358560
2023-02-22T06:14:42.246Z,9.358559
2023-02-22T06:15:42.225Z,9.358585
2023-02-22T06:16:42.205Z,9.358552
2023-02-22T06:17:43.221Z,9.358545
2023-02-22T06:18:42.218Z,9.358541
2023-02-22T06:19:42.193Z,9.358473
2023-02-22T06:20:42.177Z,9.358457
2023-02-22T06:21:42.154Z,9.358446
2023-02-22T06:22:43.164Z,9.358568
2023-02-22T06:23:42.142Z,9.358639
2023-02-22T06:24:42.152Z,9.358592
2023-02-22T06:25:42.149Z,9.358604
2023-02-22T06:26:42.127Z,9.358611
2023-02-22T06:27:42.113Z,9.358586
2023-02-22T06:28:42.099Z,9.358541
2023-02-22T06:29:42.098Z,9.358503
2023-02-22T06:30:42.098Z,9.358467
2023-02-22T06:31:42.115Z,9.358500
2023-02-22T06:32:42.091Z,9.358517
2023-02-22T06:33:42.040Z,9.358551
2023-02-22T06:34:42.063Z,9.358522
2023-02-22T06:35:42.041Z,9.358529
2023-02-22T06:36:42.023Z,9.358552
2023-02-22T06:37:41.995Z,9.358515
2023-02-22T06:38:42.009Z,9.358552
2023-02-22T06:39:41.993Z,9.358611
2023-02-22T06:40:41.951Z,9.358576
2023-02-22T06:41:41.979Z,9.358509
2023-02-22T06:42:41.953Z,9.358478
2023-02-22T06:43:41.927Z,9.358527
2023-02-22T06:44:41.952Z,9.358582
2023-02-22T06:45:41.964Z,9.358580
2023-02-22T06:46:41.918Z,9.358571
2023-02-22T06:47:41.901Z,9.358561
2023-02-22T06:48:41.891Z,9.358519
2023-02-22T06:49:41.890Z,9.358531
2023-02-22T06:50:41.873Z,9.358600
2023-02-22T06:51:41.861Z,9.358569
2023-02-22T06:52:41.836Z,9.358624
2023-02-22T06:53:41.839Z,9.358585
2023-02-22T06:54:41.826Z,9.358583
2023-02-22T06:55:41.811Z,9.358551
2023-02-22T06:56:41.814Z,9.358542
2023-02-22T06:57:41.796Z,9.358574
2023-02-22T06:58:41.791Z,9.358541
2023-02-22T06:59:41.776Z,9.358579
2023-02-22T07:00:41.766Z,9.358515
2023-02-22T07:01:41.762Z,9.358452
2023-02-22T07:02:41.743Z,9.358494
2023-02-22T07:03:41.736Z,9.358509
2023-02-22T07:04:43.417Z,9.358460
2023-02-22T07:05:42.714Z,9.358553
2023-02-22T07:06:41.712Z,9.358459
2023-02-22T07:07:41.695Z,9.358418
2023-02-22T07:08:41.703Z,9.358464
2023-02-22T07:09:41.672Z,9.358421
2023-02-22T07:10:41.671Z,9.358433
2023-02-22T07:11:41.642Z,9.358414
2023-02-22T07:12:41.644Z,9.358529
2023-02-22T07:13:41.640Z,9.358550
2023-02-22T07:14:41.612Z,9.358537
2023-02-22T07:15:41.599Z,9.358507
2023-02-22T07:16:41.643Z,9.358485
2023-02-22T07:17:41.599Z,9.358529
2023-02-22T07:18:41.575Z,9.358597
2023-02-22T07:19:41.571Z,9.358551
2023-02-22T07:20:41.567Z,9.358485
2023-02-22T07:21:41.606Z,9.358429
2023-02-22T07:22:41.582Z,9.358519
2023-02-22T07:23:41.559Z,9.358513
2023-02-22T07:24:41.516Z,9.358555
2023-02-22T07:25:41.497Z,9.358514
2023-02-22T07:26:41.497Z,9.358482
2023-02-22T07:27:41.510Z,9.358517
2023-02-22T07:28:41.485Z,9.358508
2023-02-22T07:29:41.462Z,9.358492
2023-02-22T07:30:41.525Z,9.358486
2023-02-22T07:31:41.443Z,9.358624
2023-02-22T07:32:41.568Z,9.358510
2023-02-22T07:33:41.417Z,9.358435
2023-02-22T07:34:41.426Z,9.358423
2023-02-22T07:35:41.436Z,9.358466
2023-02-22T07:36:41.389Z,9.358452
2023-02-22T07:37:41.389Z,9.358597
2023-02-22T07:38:41.366Z,9.358614
2023-02-22T07:39:41.363Z,9.358597
2023-02-22T07:40:41.358Z,9.358598
2023-02-22T07:41:41.352Z,9.358558
2023-02-22T07:42:41.355Z,9.358550
2023-02-22T07:43:41.325Z,9.358513
2023-02-22T07:44:41.308Z,9.358430
2023-02-22T07:45:41.340Z,9.358444
2023-02-22T07:46:41.310Z,9.358557
2023-02-22T07:47:41.285Z,9.358635
2023-02-22T07:48:41.268Z,9.358650
2023-02-22T07:49:41.250Z,9.358668
2023-02-22T07:50:41.245Z,9.358587
2023-02-22T07:51:41.306Z,9.358540
2023-02-22T07:52:41.259Z,9.358502
2023-02-22T07:53:41.233Z,9.358481
2023-02-22T07:54:41.216Z,9.358506
2023-02-22T07:55:41.193Z,9.358507
2023-02-22T07:56:41.204Z,9.358547
2023-02-22T07:57:41.182Z,9.358511
2023-02-22T07:58:41.164Z,9.358499
2023-02-22T07:59:41.159Z,9.358494
2023-02-22T08:00:41.154Z,9.358439
2023-02-22T08:01:41.138Z,9.358422
2023-02-22T08:02:41.164Z,9.358427
2023-02-22T08:03:41.168Z,9.358464
2023-02-22T08:04:41.125Z,9.358419
2023-02-22T08:05:41.110Z,9.358546
2023-02-22T08:06:41.089Z,9.358514
2023-02-22T08:07:41.065Z,9.358460
2023-02-22T08:08:41.085Z,9.358433
2023-02-22T08:09:41.054Z,9.358453
2023-02-22T08:10:41.052Z,9.358515
2023-02-22T08:11:41.049Z,9.358585
2023-02-22T08:12:41.043Z,9.358522
2023-02-22T08:13:41.029Z,9.358505
2023-02-22T08:14:41.017Z,9.358517
2023-02-22T08:15:41.014Z,9.358517
2023-02-22T08:16:40.993Z,9.358492
2023-02-22T08:18:12.885Z,9.358505
2023-02-22T08:18:40.986Z,9.358554
2023-02-22T08:19:40.946Z,9.358405
2023-02-22T08:20:40.993Z,9.358459
2023-02-22T08:21:40.943Z,9.358600
2023-02-22T08:22:40.942Z,9.358572
2023-02-22T08:23:40.893Z,9.358426
2023-02-22T08:24:40.920Z,9.358617
2023-02-22T08:25:40.871Z,9.358625
2023-02-22T08:26:40.859Z,9.358625
2023-02-22T08:27:40.961Z,9.358658
2023-02-22T08:28:40.886Z,9.358668
2023-02-22T08:29:40.861Z,9.358598
2023-02-22T08:30:41.012Z,9.358525
2023-02-22T08:31:41.952Z,9.358558
2023-02-22T08:32:40.848Z,9.358417
2023-02-22T08:33:40.794Z,9.358397
2023-02-22T08:34:40.778Z,9.358491
2023-02-22T08:35:40.843Z,9.358543
2023-02-22T08:36:40.766Z,9.358605
2023-02-22T08:37:40.744Z,9.358611
2023-02-22T08:38:40.744Z,9.358518
2023-02-22T08:39:40.741Z,9.358535
2023-02-22T08:40:40.703Z,9.358599
2023-02-22T08:41:40.715Z,9.358545
2023-02-22T08:42:40.685Z,9.358517
2023-02-22T08:43:40.712Z,9.358557
2023-02-22T08:44:40.677Z,9.358568
2023-02-22T08:45:40.735Z,9.358602
2023-02-22T08:46:40.667Z,9.358559
2023-02-22T08:47:40.620Z,9.358561
2023-02-22T08:48:40.638Z,9.358539
2023-02-22T08:49:40.658Z,9.358458
2023-02-22T08:50:40.611Z,9.358619
2023-02-22T08:51:40.615Z,9.358588
2023-02-22T08:52:40.576Z,9.358505
2023-02-22T08:53:40.545Z,9.358575
2023-02-22T08:54:40.553Z,9.358594
2023-02-22T08:55:40.554Z,9.358557
2023-02-22T08:56:40.513Z,9.358541
2023-02-22T08:57:40.535Z,9.358529
2023-02-22T08:58:40.519Z,9.358569
2023-02-22T08:59:40.527Z,9.358495
2023-02-22T09:00:40.511Z,9.358481
2023-02-22T09:01:40.512Z,9.358492
2023-02-22T09:02:40.461Z,9.358479
2023-02-22T09:03:40.513Z,9.358500
2023-02-22T09:04:40.466Z,9.358495
2023-02-22T09:05:40.504Z,9.358453
2023-02-22T09:06:40.434Z,9.358424
2023-02-22T09:07:40.432Z,9.358392
2023-02-22T09:08:40.396Z,9.358455
2023-02-22T09:09:40.404Z,9.358460
2023-02-22T09:10:40.383Z,9.358435
2023-02-22T09:11:40.371Z,9.358403
2023-02-22T09:12:40.359Z,9.358447
2023-02-22T09:13:40.334Z,9.358468
2023-02-22T09:14:40.337Z,9.358459
2023-02-22T09:15:40.330Z,9.358451
2023-02-22T09:16:40.334Z,9.358446
2023-02-22T09:17:40.279Z,9.358473
2023-02-22T09:18:44.322Z,9.358479
2023-02-22T09:19:41.296Z,9.358563
2023-02-22T09:20:40.234Z,9.358566
2023-02-22T09:21:40.277Z,9.358568
2023-02-22T09:22:40.245Z,9.358494
2023-02-22T09:23:40.213Z,9.358545
2023-02-22T09:24:40.221Z,9.358554
2023-02-22T09:25:40.219Z,9.358555
2023-02-22T09:26:40.212Z,9.358657
2023-02-22T09:27:40.173Z,9.358547
2023-02-22T09:28:40.197Z,9.358530
2023-02-22T09:29:40.166Z,9.358505
2023-02-22T09:30:40.213Z,9.358533
2023-02-22T09:31:40.258Z,9.358590
2023-02-22T09:32:40.407Z,9.358538
2023-02-22T09:33:40.102Z,9.358519
2023-02-22T09:34:40.141Z,9.358532
2023-02-22T09:35:40.136Z,9.358499
2023-02-22T09:36:40.094Z,9.358526
2023-02-22T09:37:42.084Z,9.358473
2023-02-22T09:38:43.977Z,9.358578
2023-02-22T09:39:40.114Z,9.358568
2023-02-22T09:40:40.071Z,9.358519
2023-02-22T09:41:40.034Z,9.358480
2023-02-22T09:42:40.019Z,9.358504
2023-02-22T09:43:40.030Z,9.358507
2023-02-22T09:44:40.001Z,9.358533
2023-02-22T09:45:40.037Z,9.358568
2023-02-22T09:46:40.978Z,9.358580
2023-02-22T09:47:40.001Z,9.358577
2023-02-22T09:48:39.950Z,9.358521
2023-02-22T09:49:39.990Z,9.358534
2023-02-22T09:50:39.940Z,9.358507
2023-02-22T09:51:39.918Z,9.358441
2023-02-22T09:52:39.931Z,9.358454
2023-02-22T09:53:39.889Z,9.358423
2023-02-22T09:54:39.893Z,9.358484
2023-02-22T09:55:39.902Z,9.358552
2023-02-22T09:56:39.876Z,9.358508
2023-02-22T09:57:39.842Z,9.358502
2023-02-22T09:58:41.827Z,9.358513
2023-02-22T09:59:40.870Z,9.358462
2023-02-22T10:00:39.820Z,9.358427
2023-02-22T10:01:39.849Z,9.358457
2023-02-22T10:02:39.809Z,9.358445
2023-02-22T10:03:39.833Z,9.358617
2023-02-22T10:04:39.806Z,9.358496
2023-02-22T10:05:39.975Z,9.358538
2023-02-22T10:06:39.786Z,9.358516
2023-02-22T10:07:39.781Z,9.358585
2023-02-22T10:08:39.737Z,9.358518
2023-02-22T10:09:39.758Z,9.358445
2023-02-22T10:10:39.753Z,9.358500
2023-02-22T10:11:39.702Z,9.358468
2023-02-22T10:12:39.690Z,9.358492
2023-02-22T10:13:39.733Z,9.358487
2023-02-22T10:14:39.684Z,9.358474
2023-02-22T10:15:39.657Z,9.358501
2023-02-22T10:16:39.700Z,9.358522
2023-02-22T10:17:39.628Z,9.358525
2023-02-22T10:18:39.632Z,9.358530
2023-02-22T10:19:39.684Z,9.358612
2023-02-22T10:20:39.606Z,9.358679
2023-02-22T10:21:39.593Z,9.358561
2023-02-22T10:22:39.613Z,9.358518
2023-02-22T10:23:39.593Z,9.358467
2023-02-22T10:24:39.600Z,9.358477
2023-02-22T10:25:39.594Z,9.358508
2023-02-22T10:26:39.573Z,9.358481
2023-02-22T10:27:39.524Z,9.358461
2023-02-22T10:28:39.528Z,9.358530
2023-02-22T10:29:39.531Z,9.358512
2023-02-22T10:30:39.550Z,9.358539
2023-02-22T10:31:39.596Z,9.358485
2023-02-22T10:32:39.526Z,9.358531
2023-02-22T10:33:39.448Z,9.358563
2023-02-22T10:34:39.470Z,9.358551
2023-02-22T10:35:39.479Z,9.358569
2023-02-22T10:36:39.439Z,9.358624
2023-02-22T10:37:39.446Z,9.358528
2023-02-22T10:38:39.413Z,9.358514
2023-02-22T10:39:39.484Z,9.358591
2023-02-22T10:40:39.401Z,9.358625
2023-02-22T10:41:39.356Z,9.358573
2023-02-22T10:42:39.364Z,9.358623
2023-02-22T10:43:39.412Z,9.358624
2023-02-22T10:44:39.341Z,9.358586
2023-02-22T10:45:39.345Z,9.358576
2023-02-22T10:46:39.339Z,9.358606
2023-02-22T10:47:39.328Z,9.358582
2023-02-22T10:48:39.288Z,9.358547
2023-02-22T10:49:39.347Z,9.358537
2023-02-22T10:50:39.284Z,9.358590
2023-02-22T10:51:39.300Z,9.358557
2023-02-22T10:52:39.280Z,9.358557
2023-02-22T10:53:39.273Z,9.358588
2023-02-22T10:54:39.246Z,9.358533
2023-02-22T10:55:39.263Z,9.358554
2023-02-22T10:56:39.254Z,9.358626
2023-02-22T10:57:39.196Z,9.358598
2023-02-22T10:58:39.237Z,9.358590
2023-02-22T10:59:39.226Z,9.358610
2023-02-22T11:00:39.189Z,9.358586
2023-02-22T11:01:39.230Z,9.358641
2023-02-22T11:02:39.160Z,9.358585
2023-02-22T11:03:39.165Z,9.358620
2023-02-22T11:04:39.186Z,9.358660
2023-02-22T11:05:39.135Z,9.358602
2023-02-22T11:06:39.114Z,9.358624
2023-02-22T11:07:39.106Z,9.358650
2023-02-22T11:08:39.096Z,9.358670
2023-02-22T11:09:39.095Z,9.358646
2023-02-22T11:10:39.080Z,9.358629
2023-02-22T11:11:40.028Z,9.358613
2023-02-22T11:12:39.037Z,9.358592
2023-02-22T11:13:39.047Z,9.358520
2023-02-22T11:14:39.036Z,9.358470
2023-02-22T11:15:39.051Z,9.358536
2023-02-22T11:16:39.086Z,9.358538
2023-02-22T11:17:38.971Z,9.358575
2023-02-22T11:18:38.983Z,9.358513
2023-02-22T11:19:38.980Z,9.358459
2023-02-22T11:20:38.937Z,9.358562
2023-02-22T11:21:38.947Z,9.358546
2023-02-22T11:22:38.969Z,9.358546
2023-02-22T11:23:38.893Z,9.358582
2023-02-22T11:24:48.830Z,9.358587
2023-02-22T11:25:40.937Z,9.358603
2023-02-22T11:26:38.879Z,9.358584
2023-02-22T11:27:38.863Z,9.358611
2023-02-22T11:28:38.909Z,9.358613
2023-02-22T11:29:38.849Z,9.358578
2023-02-22T11:30:38.902Z,9.358623
2023-02-22T11:31:38.944Z,9.358602
2023-02-22T11:32:38.820Z,9.358542
2023-02-22T11:33:38.802Z,9.358564
2023-02-22T11:34:38.814Z,9.358639
2023-02-22T11:35:38.805Z,9.358563
2023-02-22T11:36:38.778Z,9.358546
2023-02-22T11:37:38.766Z,9.358496
2023-02-22T11:38:38.752Z,9.358529
2023-02-22T11:39:38.781Z,9.358581
2023-02-22T11:40:38.730Z,9.358591
2023-02-22T11:41:38.729Z,9.358602
2023-02-22T11:42:38.729Z,9.358541
2023-02-22T11:43:38.692Z,9.358512
2023-02-22T11:44:38.660Z,9.358515